Pagina principale
METAR-TAF:

METAR-TAF

Aeroporti :

Aeroporto delle Svalbard-Longyearbyen

Longyearbyen, Norvegia

latitudine: 78-15N, longitudine: 015-28E, altezza: 2 m

Osservazione

Il bollettino è stato emesso 36 minuti fa, alle 01:50 UTC
Vento 4 kt da sud
Temperature -14°C
Umidità 85%
Pressione 1029 hPa
Visibilità 10 km o più
Poco nuvoloso ad un'altezza di 1500 ft

METAR: ENSB 240150Z 18004KT 9999 FEW015 M14/M16 Q1029 RMK WIND 1400FT 21003KT

Ora: 03:26 (02:26 UTC)

Previsione

Previsione valida dal 24 alle 00 UTC al 24 alle 24 UTC
Vento 6 kt da est/sud-est
Visibilità 10 km o più
Poco nuvoloso ad un'altezza di 3000 ft

TAF: ENSB 2400/2424 12006KT 9999 FEW030

Osservazioni e previsioni meteorologiche di più di 4000 aeroporti (messaggi METAR e TAF).

Le stazioni disponibili sono rappresentate dai dischi gialli e rossi sulla carta.

Puntare il mouse per vedere il nome della stazione.

Clicca sopra per visualizzare le osservazioni e previsioni meteorologiche.

Per cambiare la mappa : fare clic sui pulsanti verdi con una croce nera per ingrandire, il pulsante verde con un trattino per diminuire, o sulla freccia verde per le mappe adiacenti.


METAR-TAF: